Time;durP1;ratioP1;P1;durP2;ratioP2;P2;SDS_P1;SDS_P2;PMS_P1;PMS_P2;Temp;Humidity;BMP_temperature;BMP_pressure;BME280_temperature;BME280_humidity;BME280_pressure;Samples;Min_cycle;Max_cycle;Signal;HPM_P1;HPM_P2
2021/05/18 04:59:24;;;;;;;15.70;6.50;;;;;;;24.80;56.81;99816.77;1759390;80;21905;-66
2021/05/18 05:07:10;;;;;;;13.55;5.83;;;;;;;25.80;53.82;99813.69;1763754;80;22287;-61
2021/05/18 05:09:45;;;;;;;12.93;5.55;;;;;;;26.28;52.69;99805.53;1763508;80;21310;-64
2021/05/18 05:14:59;;;;;;;13.38;4.78;;;;;;;27.76;49.36;99799.55;1763727;80;22280;-60
2021/05/18 05:17:33;;;;;;;11.20;4.58;;;;;;;28.76;46.75;99799.80;1758982;80;21181;-65
2021/05/18 05:20:08;;;;;;;12.82;5.12;;;;;;;29.56;44.43;99789.15;1771036;79;21255;-65
2021/05/18 05:22:42;;;;;;;12.63;4.20;;;;;;;30.31;42.79;99796.27;1760318;80;22220;-64
2021/05/18 05:25:15;;;;;;;9.18;4.05;;;;;;;31.01;40.79;99805.98;1766486;80;21310;-65
2021/05/18 05:27:48;;;;;;;8.95;3.72;;;;;;;31.33;39.34;99791.14;1764708;80;21338;-67
2021/05/18 05:30:24;;;;;;;8.73;3.95;;;;;;;31.69;38.60;99790.55;1770745;80;22077;-67
2021/05/18 05:33:00;;;;;;;10.38;3.50;;;;;;;32.16;37.77;99787.67;1763020;79;21206;-66
2021/05/18 05:35:34;;;;;;;10.70;3.85;;;;;;;32.42;36.46;99788.43;1758267;80;21260;-68
2021/05/18 05:38:11;;;;;;;7.40;3.22;;;;;;;32.67;35.73;99779.73;1759446;80;21396;-61
2021/05/18 05:40:47;;;;;;;7.25;3.22;;;;;;;32.92;35.13;99785.59;1767441;80;21364;-63
2021/05/18 05:43:20;;;;;;;;;;;;;;;33.17;34.50;99774.38;1767696;80;21243;-63
2021/05/18 05:45:52;;;;;;;7.67;4.17;;;;;;;33.49;34.35;99780.36;1760604;80;20282;-64
2021/05/18 05:48:26;;;;;;;8.13;3.58;;;;;;;33.73;34.07;99782.95;1773411;80;21338;-64
2021/05/18 05:50:58;;;;;;;21.73;4.28;;;;;;;33.74;33.43;99774.52;1748551;80;21252;-64
2021/05/18 05:53:32;;;;;;;6.28;3.10;;;;;;;33.39;33.75;99783.81;1737983;81;21806;-67
2021/05/18 05:56:05;;;;;;;7.83;3.50;;;;;;;32.84;34.49;99784.89;1743587;81;21930;-64
2021/05/18 05:58:39;;;;;;;8.25;3.40;;;;;;;32.25;34.89;99794.87;1717208;82;21281;-66
2021/05/18 06:01:19;;;;;;;15.98;3.60;;;;;;;31.49;35.88;99796.71;1719934;82;21334;-64
2021/05/18 06:03:53;;;;;;;9.33;3.83;;;;;;;30.67;37.25;99797.52;1719103;82;21339;-64
2021/05/18 06:06:28;;;;;;;12.30;3.60;;;;;;;30.01;38.64;99797.73;1717814;82;21386;-66
2021/05/18 06:09:01;;;;;;;9.88;3.83;;;;;;;29.45;39.78;99806.39;1721418;82;21193;-66
2021/05/18 06:34:29;;;;;;;7.30;2.72;;;;;;;27.72;43.21;99794.41;1713648;82;21316;-61
2021/05/18 06:48:10;;;;;;;8.28;3.33;;;;;;;27.40;42.54;99795.78;1714550;82;21808;-65
2021/05/18 06:50:43;;;;;;;7.25;3.30;;;;;;;27.34;43.05;99790.06;1716950;82;21447;-62
2021/05/18 06:53:16;;;;;;;7.05;3.20;;;;;;;27.29;43.28;99799.43;1716298;81;21308;-67
2021/05/18 06:55:51;;;;;;;7.22;3.30;;;;;;;27.13;43.84;99807.08;1711017;82;21298;-62
2021/05/18 07:01:11;;;;;;;9.63;4.30;;;;;;;26.72;44.64;99816.01;1700229;83;21382;-60
2021/05/18 07:03:49;;;;;;;9.13;4.15;;;;;;;26.40;45.52;99814.28;1710355;83;21331;-63
2021/05/18 07:08:57;;;;;;;9.73;3.87;;;;;;;26.33;46.19;99809.11;1702615;83;21267;-66
2021/05/18 07:11:30;;;;;;;14.93;4.50;;;;;;;26.47;45.93;99807.67;1697737;83;21310;-62
2021/05/18 07:14:03;;;;;;;8.35;3.45;;;;;;;26.79;45.65;99815.87;1673563;83;22568;-69
2021/05/18 07:16:36;;;;;;;;;;;;;;;26.98;44.75;99805.05;1703367;83;21299;-65
2021/05/18 07:19:09;;;;;;;13.27;4.00;;;;;;;26.96;44.77;99807.72;1700656;83;20295;-66
2021/05/18 07:21:44;;;;;;;8.63;3.60;;;;;;;26.92;44.44;99814.11;1693004;83;21304;-66
2021/05/18 07:24:22;;;;;;;14.35;4.05;;;;;;;26.81;44.88;99812.91;1700126;83;21192;-66
2021/05/18 07:26:52;;;;;;;6.92;3.08;;;;;;;26.73;45.34;99818.17;1691755;83;21284;-68
2021/05/18 07:29:25;;;;;;;;;;;;;;;26.67;44.84;99821.88;1716285;81;21312;-67
2021/05/18 07:31:58;;;;;;;7.70;3.65;;;;;;;26.42;44.68;99824.23;1698605;82;20754;-67
2021/05/18 07:34:31;;;;;;;13.58;5.72;;;;;;;26.42;44.68;99824.23;1750365;80;21171;-66
2021/05/18 07:37:04;;;;;;;28.38;20.30;;;;;;;26.20;45.40;99828.80;1748613;80;21244;-61
2021/05/18 07:39:37;;;;;;;32.00;21.25;;;;;;;25.93;46.28;99829.46;1750272;80;21347;-65
2021/05/18 07:42:10;;;;;;;35.20;22.95;;;;;;;25.66;47.02;99829.02;1748432;80;21327;-66
2021/05/18 07:44:44;;;;;;;29.40;16.42;;;;;;;25.43;47.71;99829.41;1746548;80;21169;-61
2021/05/18 07:47:18;;;;;;;10.75;4.50;;;;;;;25.25;48.43;99838.20;1752042;80;21272;-61
2021/05/18 07:49:54;;;;;;;16.55;4.00;;;;;;;25.11;48.93;99834.21;1754413;80;21274;-67
2021/05/18 08:02:21;;;;;;;5.87;3.22;;;;;;;24.68;50.50;99852.09;1746791;80;21322;-61
2021/05/18 08:06:50;;;;;;;7.70;4.12;;;;;;;24.60;50.74;99865.84;1718631;82;21818;-63
2021/05/18 08:09:24;;;;;;;6.87;3.72;;;;;;;24.57;50.67;99872.50;1731396;81;21299;-63
2021/05/18 08:11:57;;;;;;;10.63;3.65;;;;;;;24.60;50.53;99870.67;1732728;81;21228;-64
2021/05/18 08:14:32;;;;;;;12.00;5.10;;;;;;;24.65;50.41;99873.98;1737389;81;21834;-64
2021/05/18 08:17:25;;;;;;;9.38;3.60;;;;;;;24.80;50.41;99876.19;1739774;81;21377;-65
2021/05/18 08:20:26;;;;;;;7.95;3.30;;;;;;;24.90;49.59;99879.89;1733772;81;21275;-61
2021/05/18 10:27:09;;;;;;;7.08;4.65;;;;;;;24.89;51.90;99930.47;1773338;80;21843;-71
2021/05/18 10:35:00;;;;;;;8.18;5.67;;;;;;;24.45;54.89;99935.94;1730266;80;21314;-68
2021/05/18 10:37:48;;;;;;;8.25;5.12;;;;;;;24.34;55.34;99938.06;1727341;82;21358;-65
2021/05/18 10:40:32;;;;;;;11.50;5.60;;;;;;;24.23;55.67;99934.88;1759716;80;21369;-65
2021/05/18 10:43:29;;;;;;;6.22;5.50;;;;;;;24.14;55.58;99929.59;1740395;80;22571;-69
2021/05/18 10:46:07;;;;;;;8.25;5.90;;;;;;;24.03;56.19;99931.67;1735896;81;21223;-73
2021/05/18 10:48:52;;;;;;;11.75;6.72;;;;;;;23.93;56.58;99937.59;1730623;81;21372;-66
2021/05/18 10:51:27;;;;;;;9.13;7.80;;;;;;;23.88;57.09;99935.34;1728620;81;21208;-68
2021/05/18 10:54:23;;;;;;;7.67;6.65;;;;;;;23.90;57.65;99937.26;1732657;81;22479;-65
2021/05/18 10:57:03;;;;;;;8.75;6.75;;;;;;;23.94;57.41;99932.55;1733732;81;21394;-72
2021/05/18 10:59:48;;;;;;;6.95;4.85;;;;;;;23.91;57.79;99926.32;1733620;81;21278;-68
2021/05/18 11:02:40;;;;;;;11.83;5.37;;;;;;;23.98;57.70;99930.22;1719900;81;21302;-64
2021/05/18 11:05:15;;;;;;;5.60;5.00;;;;;;;24.10;57.29;99919.05;1729134;81;21285;-65
2021/05/18 11:07:49;;;;;;;4.85;4.37;;;;;;;24.21;57.01;99923.60;1739015;81;21212;-63
2021/05/18 11:10:23;;;;;;;6.45;4.00;;;;;;;24.29;56.92;99919.77;1738470;81;21865;-64
2021/05/18 11:12:56;;;;;;;6.75;3.80;;;;;;;24.21;56.89;99920.11;1729111;82;21382;-67
2021/05/18 11:15:29;;;;;;;5.67;3.40;;;;;;;24.07;57.14;99914.97;1734681;81;21294;-66
2021/05/18 11:18:09;;;;;;;3.05;2.75;;;;;;;23.93;56.88;99916.20;1677957;82;21833;-67
2021/05/18 11:23:22;;;;;;;6.50;3.05;;;;;;;23.58;57.00;99902.48;1740955;81;21869;-66
2021/05/18 11:26:08;;;;;;;4.58;3.08;;;;;;;23.47;57.59;99896.08;1736737;81;21266;-65
2021/05/18 11:28:49;;;;;;;4.67;2.80;;;;;;;23.35;57.00;99898.72;1752978;80;21236;-65
2021/05/18 11:31:26;;;;;;;3.83;2.80;;;;;;;23.18;57.30;99891.02;1755441;80;21244;-68
2021/05/18 11:34:04;;;;;;;3.85;3.15;;;;;;;23.03;57.80;99900.45;1750733;80;21287;-64
2021/05/18 11:36:41;;;;;;;6.22;3.55;;;;;;;22.89;58.81;99913.16;1746450;80;21326;-65
2021/05/18 11:39:16;;;;;;;4.10;3.15;;;;;;;22.76;60.03;99927.46;1742361;80;21334;-65
2021/05/18 11:41:53;;;;;;;4.00;2.77;;;;;;;22.57;61.20;99934.34;1705283;82;21211;-61
2021/05/18 11:44:31;;;;;;;5.08;3.40;;;;;;;22.40;62.05;99941.28;1758100;80;21360;-66
2021/05/18 11:47:05;;;;;;;9.33;3.52;;;;;;;22.16;62.29;99932.78;1771092;79;22020;-69
2021/05/18 11:49:38;;;;;;;10.72;3.58;;;;;;;21.92;62.76;99936.56;1769159;79;21889;-71
2021/05/18 11:52:11;;;;;;;4.65;3.12;;;;;;;21.78;63.27;99926.98;1767725;80;21295;-62
2021/05/18 11:54:44;;;;;;;3.40;3.00;;;;;;;21.67;63.58;99932.19;1772263;79;21174;-63
2021/05/18 11:57:19;;;;;;;4.70;2.83;;;;;;;21.52;63.64;99933.03;1745829;81;21998;-69
2021/05/18 11:59:52;;;;;;;5.92;2.75;;;;;;;21.39;63.63;99936.58;1746619;81;21717;-65
2021/05/18 12:02:26;;;;;;;5.92;2.90;;;;;;;21.24;63.96;99940.84;1744604;81;21276;-66
2021/05/18 12:05:08;;;;;;;4.92;2.95;;;;;;;21.14;64.73;99944.47;1755014;81;21905;-61
2021/05/18 12:07:41;;;;;;;7.60;3.50;;;;;;;21.05;65.44;99944.92;1751931;81;21841;-65
2021/05/18 12:10:15;;;;;;;6.95;3.12;;;;;;;20.99;66.20;99947.90;1754723;81;21191;-66
2021/05/18 12:12:51;;;;;;;6.08;3.45;;;;;;;20.94;66.63;99946.38;1741679;81;21330;-59
2021/05/18 12:15:26;;;;;;;5.30;3.62;;;;;;;20.87;66.82;99952.75;1754849;81;21333;-60
2021/05/18 12:18:05;;;;;;;5.47;4.17;;;;;;;20.75;67.32;99953.38;1753142;81;21299;-61
2021/05/18 12:20:41;;;;;;;4.83;3.90;;;;;;;20.65;67.98;99949.53;1744538;81;21318;-59
2021/05/18 12:23:17;;;;;;;7.12;4.83;;;;;;;20.60;68.78;99949.33;1751827;81;21302;-59
2021/05/18 12:25:52;;;;;;;13.38;5.80;;;;;;;20.58;69.45;99950.05;1747046;81;21278;-59
2021/05/18 12:28:25;;;;;;;10.48;4.20;;;;;;;20.52;70.12;99945.05;1747229;81;22562;-60
2021/05/18 12:30:59;;;;;;;6.12;3.95;;;;;;;20.54;71.11;99957.63;1752755;81;21507;-61
2021/05/18 12:33:38;;;;;;;10.48;4.75;;;;;;;20.54;71.52;99960.28;1742572;81;21190;-60
2021/05/18 12:36:11;;;;;;;6.80;4.30;;;;;;;20.49;72.10;99956.63;1746886;81;21221;-59
2021/05/18 12:38:46;;;;;;;7.00;4.75;;;;;;;20.46;72.43;99951.72;1750874;81;21264;-60
2021/05/18 12:41:20;;;;;;;9.10;5.45;;;;;;;20.41;72.94;99953.66;1746865;81;21129;-65
2021/05/18 12:43:57;;;;;;;6.33;5.10;;;;;;;20.39;73.53;99951.73;1752459;81;21260;-61
2021/05/18 12:46:28;;;;;;;7.08;4.62;;;;;;;20.38;73.88;99959.89;1745478;81;21271;-64
2021/05/18 12:49:02;;;;;;;7.92;5.12;;;;;;;20.34;74.34;99962.16;1750985;81;21312;-64
2021/05/18 12:51:35;;;;;;;12.75;8.15;;;;;;;20.31;74.71;99963.07;1724599;81;21875;-62
2021/05/18 12:54:08;;;;;;;8.35;6.12;;;;;;;20.32;75.15;99969.53;1745395;81;21344;-61
2021/05/18 12:56:41;;;;;;;8.83;6.03;;;;;;;20.36;75.62;99968.59;1746743;81;21894;-59
2021/05/18 12:59:16;;;;;;;8.53;6.37;;;;;;;20.37;74.69;99968.91;1755743;81;21276;-62
2021/05/18 13:01:50;;;;;;;7.62;6.83;;;;;;;20.33;74.57;99968.48;1747482;81;22110;-58
2021/05/18 13:04:23;;;;;;;10.05;6.72;;;;;;;20.30;74.97;99974.75;1750972;81;21306;-60
2021/05/18 13:06:56;;;;;;;9.48;7.03;;;;;;;20.24;74.62;99974.22;1754336;80;21181;-60
2021/05/18 13:09:30;;;;;;;11.00;7.37;;;;;;;20.12;74.71;99976.65;1746349;81;21356;-64
2021/05/18 13:12:12;;;;;;;8.20;6.58;;;;;;;20.00;75.07;99980.93;1767109;79;21562;-61
2021/05/18 13:15:01;;;;;;;11.12;7.85;;;;;;;19.92;75.62;99978.45;1751204;81;21845;-62
2021/05/18 13:17:34;;;;;;;9.03;7.12;;;;;;;19.86;76.17;99976.13;1750800;81;21275;-60
2021/05/18 13:20:12;;;;;;;12.95;8.35;;;;;;;19.84;76.26;99982.66;1741118;81;22458;-58
2021/05/18 13:22:50;;;;;;;9.35;7.78;;;;;;;19.79;76.41;99987.75;1753477;81;21232;-60
2021/05/18 13:28:12;;;;;;;11.25;8.40;;;;;;;19.82;77.09;99997.98;1748669;81;21258;-58
2021/05/18 13:30:45;;;;;;;9.60;7.95;;;;;;;19.81;77.26;100000.31;1751487;81;21332;-63
2021/05/18 13:33:20;;;;;;;11.18;8.33;;;;;;;19.79;76.99;100005.84;1751786;81;21862;-59
2021/05/18 13:35:54;;;;;;;10.18;8.10;;;;;;;19.72;77.00;100005.52;1745247;81;21377;-59
2021/05/18 13:38:28;;;;;;;12.07;8.55;;;;;;;19.67;77.24;100000.81;1754248;81;21283;-61
2021/05/18 13:41:03;;;;;;;14.28;9.23;;;;;;;19.65;77.52;99998.05;1747743;81;21307;-60
2021/05/18 13:43:36;;;;;;;14.53;9.43;;;;;;;19.60;78.04;100001.30;1750375;81;21324;-61
2021/05/18 13:46:13;;;;;;;10.68;8.73;;;;;;;19.63;78.61;100007.52;1744271;81;21130;-58
2021/05/18 13:48:48;;;;;;;11.78;8.73;;;;;;;19.62;78.65;99996.61;1745682;81;21312;-59
2021/05/18 13:51:21;;;;;;;10.23;7.97;;;;;;;19.58;78.62;100004.67;1751301;81;21274;-56
2021/05/18 13:53:55;;;;;;;11.63;8.75;;;;;;;19.55;78.83;100012.20;1748864;81;22123;-56
2021/05/18 13:56:31;;;;;;;8.85;7.95;;;;;;;19.48;79.13;100006.88;1742046;81;21374;-58
2021/05/18 13:59:03;;;;;;;15.98;11.05;;;;;;;19.44;79.39;100005.62;1750542;81;21346;-61
2021/05/18 14:01:36;;;;;;;10.82;8.25;;;;;;;19.37;79.79;100001.62;1758537;81;21316;-58
2021/05/18 14:04:09;;;;;;;14.17;9.13;;;;;;;19.35;80.23;100000.15;1749228;81;21292;-58
2021/05/18 14:07:00;;;;;;;15.10;9.48;;;;;;;19.35;80.66;100000.15;1748051;81;21272;-59
2021/05/18 14:09:28;;;;;;;13.75;10.85;;;;;;;19.35;80.89;100000.98;1747944;81;21310;-58
2021/05/18 14:12:02;;;;;;;16.90;11.50;;;;;;;19.33;81.02;99996.38;1748464;81;21311;-59
2021/05/18 14:14:38;;;;;;;16.17;11.53;;;;;;;19.36;81.11;100002.66;1753654;81;21801;-61
2021/05/18 14:17:11;;;;;;;16.80;11.80;;;;;;;19.36;81.08;99999.17;1754854;81;21280;-58
2021/05/18 14:19:44;;;;;;;;;;;;;;;19.35;80.98;99990.86;1751796;81;21181;-59
2021/05/18 14:22:18;;;;;;;15.15;10.10;;;;;;;19.36;80.98;99988.56;1753196;81;20301;-58
2021/05/18 14:25:06;;;;;;;;;;;;;;;19.34;80.28;99988.73;1754171;81;21315;-58
2021/05/18 14:27:39;;;;;;;17.70;13.53;;;;;;;19.30;79.91;99984.82;1749407;81;20183;-58
2021/05/18 14:30:13;;;;;;;;;;;;;;;19.28;80.05;99984.20;1755582;81;21355;-58
2021/05/18 14:32:46;;;;;;;19.87;14.75;;;;;;;19.26;80.18;99982.77;1752209;81;20270;-59
2021/05/18 14:35:20;;;;;;;22.17;15.03;;;;;;;19.24;80.42;99977.67;1753305;81;21338;-57
2021/05/18 14:37:58;;;;;;;21.62;14.90;;;;;;;19.25;80.76;99973.19;1747714;81;21811;-59
2021/05/18 14:40:55;;;;;;;18.87;14.95;;;;;;;19.26;80.64;99972.15;1754496;81;21850;-58
2021/05/18 14:45:46;;;;;;;22.62;13.55;;;;;;;19.32;80.87;99973.49;1716737;82;21309;-58
2021/05/18 14:53:38;;;;;;;19.90;11.90;;;;;;;19.38;80.92;99967.94;1741964;82;21293;-58
2021/05/18 14:54:10;;;;;;;24.32;17.92;;;;;;;19.46;80.32;99964.58;1722567;83;21209;-58
2021/05/18 14:56:31;;;;;;;23.07;18.62;;;;;;;19.45;79.78;99965.62;1735230;82;21324;-58
2021/05/18 14:59:05;;;;;;;25.68;18.35;;;;;;;19.43;79.82;99960.20;1753119;82;21210;-58
2021/05/18 15:01:38;;;;;;;21.60;15.13;;;;;;;19.40;80.02;99957.43;1745029;80;21325;-57
2021/05/18 15:04:11;;;;;;;19.87;13.98;;;;;;;19.41;80.18;99953.77;1735577;82;21304;-57
2021/05/18 15:06:45;;;;;;;19.50;15.40;;;;;;;19.43;80.04;99941.61;1775755;80;21845;-58
2021/05/18 15:09:18;;;;;;;24.07;17.52;;;;;;;19.39;79.72;99947.02;1783435;80;21271;-58
2021/05/18 15:11:51;;;;;;;26.80;18.42;;;;;;;19.36;79.81;99943.44;1773867;80;21280;-57
2021/05/18 15:14:25;;;;;;;22.42;18.62;;;;;;;19.32;79.98;99948.27;1770786;81;21252;-58
2021/05/18 15:16:58;;;;;;;19.67;14.95;;;;;;;19.31;80.21;99947.16;1766979;80;21287;-58
2021/05/18 15:19:32;;;;;;;20.57;15.30;;;;;;;19.28;80.25;99939.59;1769071;80;21188;-58
2021/05/18 15:22:07;;;;;;;23.35;17.30;;;;;;;19.24;80.42;99937.03;1763167;81;21254;-58
2021/05/18 15:24:41;;;;;;;27.75;21.68;;;;;;;19.21;80.73;99949.37;1762762;80;21748;-58
2021/05/18 15:27:14;;;;;;;25.77;20.88;;;;;;;19.17;81.14;99945.48;1764931;80;21235;-58
2021/05/18 15:29:48;;;;;;;22.70;16.82;;;;;;;19.13;81.39;99939.73;1745480;81;21253;-58
2021/05/18 15:32:21;;;;;;;19.73;14.78;;;;;;;19.09;81.62;99929.72;1764726;80;21280;-58
2021/05/18 15:34:55;;;;;;;22.05;14.10;;;;;;;19.02;81.58;99932.36;1758425;81;21156;-57
2021/05/18 15:37:28;;;;;;;22.62;16.27;;;;;;;18.98;81.54;99926.33;1748402;81;21198;-58
2021/05/18 15:40:02;;;;;;;23.65;16.82;;;;;;;18.96;81.73;99930.52;1739822;82;21119;-58
2021/05/18 15:42:36;;;;;;;24.07;16.67;;;;;;;18.96;81.84;99928.36;1756035;80;21265;-57
2021/05/18 15:45:12;;;;;;;21.73;14.35;;;;;;;18.94;81.91;99927.75;1760480;80;21135;-58
2021/05/18 15:47:45;;;;;;;22.42;14.10;;;;;;;18.91;82.02;99922.33;1756111;80;21316;-58
2021/05/18 15:50:18;;;;;;;21.12;15.40;;;;;;;18.88;82.18;99920.56;1764135;80;21323;-58
2021/05/18 15:52:51;;;;;;;20.72;14.50;;;;;;;18.87;82.07;99925.58;1750961;81;21336;-59
2021/05/18 15:55:26;;;;;;;24.05;16.77;;;;;;;18.83;81.68;99925.95;1748128;82;21139;-57
2021/05/18 15:57:59;;;;;;;19.15;13.30;;;;;;;18.78;81.48;99919.59;1748164;82;21210;-57
2021/05/18 16:00:32;;;;;;;19.07;12.05;;;;;;;18.76;81.41;99921.62;1748737;82;21143;-56
2021/05/18 16:03:07;;;;;;;20.32;14.10;;;;;;;18.75;81.64;99919.48;1748061;80;21340;-57
2021/05/18 16:05:40;;;;;;;18.20;14.10;;;;;;;18.78;81.58;99919.09;1748177;82;21340;-57
2021/05/18 16:11:05;;;;;;;20.97;15.53;;;;;;;18.73;80.93;99926.81;1747863;82;21293;-56
2021/05/18 16:13:40;;;;;;;19.45;15.30;;;;;;;18.70;81.03;99926.41;1747483;82;21284;-57
2021/05/18 16:16:21;;;;;;;18.73;13.53;;;;;;;18.69;81.10;99920.78;1747875;82;21234;-57
2021/05/18 16:18:49;;;;;;;20.10;12.95;;;;;;;18.68;80.86;99915.98;1747429;82;21389;-58
2021/05/18 16:21:23;;;;;;;17.75;12.25;;;;;;;18.64;80.92;99916.07;1748702;82;21303;-56
2021/05/18 16:23:58;;;;;;;17.37;13.20;;;;;;;18.60;80.92;99913.51;1747511;82;21293;-57
2021/05/18 16:26:35;;;;;;;22.40;13.80;;;;;;;18.54;81.03;99911.63;1747013;82;21918;-58
2021/05/18 16:29:09;;;;;;;18.10;13.98;;;;;;;18.49;81.08;99909.23;1746882;82;21166;-57
2021/05/18 16:31:42;;;;;;;19.48;13.58;;;;;;;18.39;81.22;99911.41;1748816;82;21250;-56
2021/05/18 16:34:15;;;;;;;;;;;;;;;18.33;81.24;99916.97;1750080;82;21273;-57
2021/05/18 16:36:48;;;;;;;16.30;12.18;;;;;;;18.25;81.50;99914.45;1747852;82;20257;-57
2021/05/18 16:39:23;;;;;;;14.95;11.33;;;;;;;18.13;81.84;99914.67;1747711;82;21320;-57
2021/05/18 16:41:56;;;;;;;15.65;11.30;;;;;;;18.04;82.21;99914.02;1748817;82;21154;-57
2021/05/18 16:44:30;;;;;;;17.25;11.48;;;;;;;18.00;82.60;99910.62;1747702;82;21186;-57
2021/05/18 16:47:03;;;;;;;;;;;;;;;17.94;82.93;99906.06;1750358;82;21328;-58
2021/05/18 16:49:36;;;;;;;18.90;12.40;;;;;;;17.87;83.37;99903.38;1747415;82;20749;-57
2021/05/18 16:52:09;;;;;;;17.48;12.10;;;;;;;17.80;83.81;99909.13;1747248;82;21391;-57
2021/05/18 16:54:42;;;;;;;21.52;12.47;;;;;;;17.76;84.08;99908.38;1753538;81;21284;-57
2021/05/18 16:57:16;;;;;;;20.97;12.33;;;;;;;17.72;84.37;99909.77;1759104;81;21276;-57
2021/05/18 16:59:49;;;;;;;14.93;11.35;;;;;;;17.66;84.77;99907.87;1758696;81;21843;-57
2021/05/18 17:02:23;;;;;;;15.75;11.33;;;;;;;17.61;85.13;99907.11;1759940;81;21272;-56
2021/05/18 17:04:57;;;;;;;19.00;12.30;;;;;;;17.57;85.45;99907.19;1758478;81;21284;-57
2021/05/18 17:07:31;;;;;;;14.95;11.40;;;;;;;17.52;85.74;99909.58;1758114;81;21161;-57
2021/05/18 17:10:06;;;;;;;15.63;11.45;;;;;;;17.42;86.51;99907.70;1758759;81;21296;-56
2021/05/18 17:12:39;;;;;;;17.57;11.22;;;;;;;17.42;86.51;99907.70;1759835;81;21268;-56
2021/05/18 17:15:13;;;;;;;14.85;10.78;;;;;;;17.39;86.75;99914.69;1758194;81;21169;-56
2021/05/18 17:17:46;;;;;;;15.70;10.75;;;;;;;17.36;87.00;99905.83;1758981;81;21190;-58
2021/05/18 17:20:20;;;;;;;17.42;11.28;;;;;;;17.33;87.19;99910.16;1758785;81;21190;-56
2021/05/18 17:22:55;;;;;;;14.03;10.60;;;;;;;17.30;87.34;99914.00;1759778;81;21787;-57
2021/05/18 17:25:28;;;;;;;16.70;11.20;;;;;;;17.27;87.50;99914.37;1758544;81;21206;-56
2021/05/18 17:28:01;;;;;;;17.30;11.80;;;;;;;17.22;87.60;99919.39;1758900;81;21158;-57
2021/05/18 17:30:35;;;;;;;21.48;12.13;;;;;;;17.18;87.77;99917.31;1758613;81;21208;-57
2021/05/18 17:33:11;;;;;;;20.52;10.75;;;;;;;17.08;87.88;99922.90;1759925;81;21280;-57
2021/05/18 17:35:44;;;;;;;14.47;9.95;;;;;;;17.08;87.88;99922.90;1758270;81;21711;-57
2021/05/18 17:38:17;;;;;;;14.47;10.20;;;;;;;17.07;88.10;99925.74;1758880;81;21158;-57
2021/05/18 17:40:50;;;;;;;15.72;9.93;;;;;;;17.02;88.07;99929.44;1758466;81;21288;-57
2021/05/18 17:43:26;;;;;;;13.13;9.38;;;;;;;16.99;88.10;99929.80;1759799;81;21795;-57
2021/05/18 17:46:02;;;;;;;12.95;9.33;;;;;;;16.96;88.00;99927.52;1758347;81;21839;-56
2021/05/18 17:48:35;;;;;;;14.55;8.88;;;;;;;16.93;87.91;99931.87;1758646;81;21344;-57
2021/05/18 17:51:08;;;;;;;9.98;7.78;;;;;;;16.90;87.80;99932.23;1758528;81;21164;-57
2021/05/18 17:53:41;;;;;;;11.30;8.10;;;;;;;16.88;87.60;99926.32;1760156;81;21304;-57
2021/05/18 17:56:15;;;;;;;9.85;7.33;;;;;;;16.86;87.24;99929.66;1746863;81;21178;-57
2021/05/18 17:58:48;;;;;;;8.80;7.00;;;;;;;16.80;86.78;99927.23;1744358;82;21150;-57
2021/05/18 18:01:23;;;;;;;8.90;6.72;;;;;;;16.77;86.46;99929.73;1743623;82;21205;-57
2021/05/18 18:03:56;;;;;;;8.45;6.30;;;;;;;16.75;86.18;99931.75;1745956;82;21737;-57
2021/05/18 18:06:29;;;;;;;9.95;6.72;;;;;;;16.74;85.86;99937.23;1744252;82;21332;-57
2021/05/18 18:09:03;;;;;;;9.33;6.63;;;;;;;16.71;85.60;99938.42;1744464;82;21297;-57
2021/05/18 18:11:37;;;;;;;;;;;;;;;16.67;85.32;99933.68;1746695;82;21303;-57
2021/05/18 18:14:09;;;;;;;9.05;6.55;;;;;;;16.63;85.13;99933.21;1745925;82;20238;-57
2021/05/18 18:16:43;;;;;;;;;;;;;;;16.59;84.98;99936.41;1746399;82;21154;-57
2021/05/18 18:19:16;;;;;;;12.60;7.08;;;;;;;16.55;84.84;99929.85;1744706;82;20234;-57
2021/05/18 18:21:50;;;;;;;;;;;;;;;16.51;84.73;99929.84;1748054;82;21304;-57
2021/05/18 18:24:23;;;;;;;8.95;6.35;;;;;;;16.46;84.57;99925.60;1745769;82;20615;-57
2021/05/18 18:26:57;;;;;;;8.53;6.60;;;;;;;16.42;84.56;99926.98;1745575;82;21269;-57
2021/05/18 18:29:30;;;;;;;11.43;6.33;;;;;;;16.38;84.50;99936.27;1744373;82;21172;-56
2021/05/18 18:32:04;;;;;;;7.75;5.92;;;;;;;16.34;84.48;99931.84;1745682;81;21269;-56
2021/05/18 18:34:38;;;;;;;13.45;6.72;;;;;;;16.31;84.47;99938.80;1744122;82;21171;-57
2021/05/18 18:37:13;;;;;;;7.60;5.35;;;;;;;16.29;84.47;99935.52;1748124;81;21255;-56
2021/05/18 18:39:47;;;;;;;66.72;54.95;;;;;;;16.28;84.44;99936.53;1774789;81;21259;-57
2021/05/18 18:42:20;;;;;;;21.60;18.62;;;;;;;16.26;84.33;99936.39;1772088;81;21264;-56
2021/05/18 18:44:53;;;;;;;27.58;23.15;;;;;;;16.24;84.21;99941.84;1762599;81;21292;-57
2021/05/18 18:47:28;;;;;;;19.85;16.67;;;;;;;16.17;84.19;99943.06;1756875;81;21155;-56
2021/05/18 18:50:04;;;;;;;33.33;28.30;;;;;;;16.11;84.03;99937.19;1741166;82;21289;-56
2021/05/18 18:55:14;;;;;;;9.73;7.62;;;;;;;16.04;84.02;99943.36;1741461;82;21277;-56
2021/05/18 18:57:47;;;;;;;8.98;7.53;;;;;;;15.99;84.04;99946.53;1740962;82;21352;-57
2021/05/18 19:00:21;;;;;;;12.73;7.05;;;;;;;15.93;84.02;99945.91;1741286;82;21285;-56
2021/05/18 19:03:03;;;;;;;11.22;7.28;;;;;;;15.88;84.00;99948.26;1744932;82;21230;-56
2021/05/18 19:13:49;;;;;;;15.65;11.22;;;;;;;15.58;84.59;99947.84;1745918;82;21190;-56
2021/05/18 19:16:23;;;;;;;13.15;8.58;;;;;;;15.51;84.87;99944.26;1751540;82;21171;-56
2021/05/18 19:18:56;;;;;;;;;;;;;;;15.49;85.15;99950.22;1736402;83;21155;-57
2021/05/18 19:21:30;;;;;;;11.12;6.97;;;;;;;15.47;85.32;99957.00;1720007;83;20225;-56
2021/05/18 19:24:04;;;;;;;13.18;8.03;;;;;;;15.42;85.44;99960.61;1735792;83;21123;-57
2021/05/18 19:26:38;;;;;;;14.78;7.20;;;;;;;15.42;85.56;99957.16;1720134;83;21227;-57
2021/05/18 19:29:12;;;;;;;11.90;5.95;;;;;;;15.43;85.65;99958.28;1735217;83;21171;-56
2021/05/18 19:31:45;;;;;;;11.22;5.90;;;;;;;15.45;85.54;99950.25;1719379;83;21171;-56
2021/05/18 19:34:30;;;;;;;7.10;5.75;;;;;;;15.45;85.43;99948.92;1745844;82;21215;-56
2021/05/18 19:37:11;;;;;;;11.73;5.97;;;;;;;15.45;85.29;99960.28;1744803;82;21285;-56
2021/05/18 19:47:59;;;;;;;7.65;5.92;;;;;;;15.42;84.59;99942.64;1745509;82;21167;-56
2021/05/18 19:50:27;;;;;;;;;;;;;;;15.39;84.37;99939.85;1747984;82;21273;-56
2021/05/18 19:53:10;;;;;;;6.62;5.30;;;;;;;15.37;84.18;99941.02;1745460;82;20595;-56
2021/05/18 19:55:47;;;;;;;7.58;5.40;;;;;;;15.30;84.14;99942.22;1744921;82;21166;-56
2021/05/18 19:58:36;;;;;;;6.58;5.03;;;;;;;15.27;84.06;99937.28;1745864;82;21691;-56
2021/05/18 20:17:59;;;;;;;9.20;6.30;;;;;;;14.85;84.25;99948.18;1775836;81;21284;-58
2021/05/18 20:20:26;;;;;;;8.75;7.03;;;;;;;14.77;84.42;99951.36;1774580;81;21268;-57
2021/05/18 20:22:59;;;;;;;8.33;6.75;;;;;;;14.70;84.57;99952.54;1775683;81;21181;-57
2021/05/18 20:25:33;;;;;;;8.20;6.10;;;;;;;14.62;84.68;99955.67;1776763;81;21114;-57
2021/05/18 20:28:06;;;;;;;8.13;6.47;;;;;;;14.54;84.92;99955.72;1775744;81;21204;-55
2021/05/18 20:30:39;;;;;;;8.43;6.35;;;;;;;14.45;85.08;99954.89;1775818;81;21324;-57
2021/05/18 20:33:28;;;;;;;15.63;7.50;;;;;;;14.39;85.33;99958.70;1775592;81;21275;-55
2021/05/18 20:36:03;;;;;;;9.05;6.30;;;;;;;14.31;85.64;99959.53;1772713;81;21212;-55
2021/05/18 20:38:48;;;;;;;8.23;5.83;;;;;;;14.27;85.90;99956.05;1772081;81;21284;-55
2021/05/18 20:41:07;;;;;;;8.78;6.08;;;;;;;14.22;86.09;99951.78;1771744;81;21263;-55
2021/05/18 20:43:41;;;;;;;7.85;6.08;;;;;;;14.19;86.28;99959.52;1775386;81;21271;-56
2021/05/18 20:46:14;;;;;;;7.60;6.35;;;;;;;14.17;86.38;99955.74;1776511;81;21236;-55
2021/05/18 20:48:48;;;;;;;11.80;6.12;;;;;;;14.13;86.50;99947.86;1775620;81;21708;-56
2021/05/18 20:51:21;;;;;;;7.78;5.53;;;;;;;14.10;86.61;99940.28;1775298;79;21310;-56
2021/05/18 20:53:56;;;;;;;6.75;6.03;;;;;;;14.06;86.61;99941.61;1775380;81;21146;-57
2021/05/18 20:56:29;;;;;;;8.53;6.20;;;;;;;14.05;86.75;99941.27;1776612;81;21326;-56
2021/05/18 20:59:03;;;;;;;7.93;5.40;;;;;;;14.02;86.75;99942.91;1775560;81;21279;-56
2021/05/18 21:01:35;;;;;;;;;;;;;;;14.01;86.79;99941.77;1778022;81;21300;-56